Time;durP1;ratioP1;P1;durP2;ratioP2;P2;SDS_P1;SDS_P2;PMS_P1;PMS_P2;Temp;Humidity;BMP_temperature;BMP_pressure;BME280_temperature;BME280_humidity;BME280_pressure;Samples;Min_cycle;Max_cycle;Signal;HPM_P1;HPM_P2
2022/07/17 00:00:23;;;;;;;5.80;1.63;;;;;;;;;;5117233;28;20205;-47
2022/07/17 00:03:02;;;;;;;6.50;1.20;;;;;;;;;;5116880;28;20528;-47
2022/07/17 00:05:30;;;;;;;3.10;1.10;;;;;;;;;;5116716;28;20630;-46
2022/07/17 00:07:57;;;;;;;4.20;1.23;;;;;;;;;;5117054;28;20205;-46
2022/07/17 00:10:23;;;;;;;6.85;1.25;;;;;;;;;;5116902;28;20198;-46
2022/07/17 00:12:51;;;;;;;2.22;1.17;;;;;;;;;;5116704;28;20198;-47
2022/07/17 00:15:19;;;;;;;11.50;1.38;;;;;;;;;;5116226;28;20688;-47
2022/07/17 00:17:46;;;;;;;6.55;1.15;;;;;;;;;;5116490;28;20244;-46
2022/07/17 00:20:13;;;;;;;4.25;1.30;;;;;;;;;;5116849;28;20202;-45
2022/07/17 00:22:42;;;;;;;8.90;1.25;;;;;;;;;;5116570;28;20671;-48
2022/07/17 00:25:10;;;;;;;4.80;1.25;;;;;;;;;;5116734;28;20198;-46
2022/07/17 00:27:37;;;;;;;7.65;1.65;;;;;;;;;;5116541;28;20214;-46
2022/07/17 00:30:05;;;;;;;4.25;1.08;;;;;;;;;;5116545;28;20752;-46
2022/07/17 00:32:32;;;;;;;3.53;1.30;;;;;;;;;;5135950;27;20258;-47
2022/07/17 00:35:00;;;;;;;3.95;1.45;;;;;;;;;;5136829;27;20205;-46
2022/07/17 00:37:27;;;;;;;5.00;1.08;;;;;;;;;;5137009;27;20217;-45
2022/07/17 00:39:54;;;;;;;3.63;1.55;;;;;;;;;;5136664;27;20661;-46
2022/07/17 00:42:21;;;;;;;6.18;1.45;;;;;;;;;;5116330;28;20507;-47
2022/07/17 00:44:48;;;;;;;7.90;1.52;;;;;;;;;;5116263;28;20204;-50
2022/07/17 00:47:20;;;;;;;5.75;1.42;;;;;;;;;;5116068;28;20197;-45
2022/07/17 00:49:48;;;;;;;5.55;1.35;;;;;;;;;;5116783;28;20193;-46
2022/07/17 00:52:16;;;;;;;4.30;1.48;;;;;;;;;;5098546;28;20197;-46
2022/07/17 00:54:47;;;;;;;7.45;1.42;;;;;;;;;;5116174;28;20198;-47
2022/07/17 00:57:31;;;;;;;5.85;1.50;;;;;;;;;;5116397;28;20229;-46
2022/07/17 00:59:59;;;;;;;8.05;1.60;;;;;;;;;;5097395;28;20186;-47
2022/07/17 01:02:26;;;;;;;5.10;1.63;;;;;;;;;;5116067;28;20202;-47
2022/07/17 01:04:53;;;;;;;3.38;1.30;;;;;;;;;;5115800;28;20646;-45
2022/07/17 01:07:20;;;;;;;5.55;1.40;;;;;;;;;;5115930;28;20212;-46
2022/07/17 01:09:47;;;;;;;8.65;1.50;;;;;;;;;;5115970;28;20201;-46
2022/07/17 01:12:14;;;;;;;11.50;1.70;;;;;;;;;;5115633;28;20194;-46
2022/07/17 01:14:41;;;;;;;4.30;1.40;;;;;;;;;;5115826;28;20546;-46
2022/07/17 01:17:09;;;;;;;2.83;1.20;;;;;;;;;;5098336;28;20270;-46
2022/07/17 01:19:37;;;;;;;4.10;1.17;;;;;;;;;;5098479;28;20193;-48
2022/07/17 01:22:04;;;;;;;3.72;1.30;;;;;;;;;;5115544;28;20279;-46
2022/07/17 01:24:31;;;;;;;2.97;1.40;;;;;;;;;;5116068;28;20517;-48
2022/07/17 01:26:58;;;;;;;5.57;1.27;;;;;;;;;;5135423;27;20205;-45
2022/07/17 01:29:25;;;;;;;7.43;1.73;;;;;;;;;;5136521;27;20208;-48
2022/07/17 01:31:52;;;;;;;3.65;1.50;;;;;;;;;;5137074;27;20197;-45
2022/07/17 01:34:19;;;;;;;6.50;1.27;;;;;;;;;;5135943;27;20525;-46
2022/07/17 01:36:46;;;;;;;5.32;1.30;;;;;;;;;;5136080;27;20196;-46
2022/07/17 01:39:13;;;;;;;3.42;1.33;;;;;;;;;;5136153;27;20229;-45
2022/07/17 01:41:40;;;;;;;4.30;1.20;;;;;;;;;;5136049;28;20205;-48
2022/07/17 01:44:08;;;;;;;3.85;1.35;;;;;;;;;;5136349;28;20212;-45
2022/07/17 01:46:35;;;;;;;3.78;1.63;;;;;;;;;;5135857;28;20211;-46
2022/07/17 01:49:02;;;;;;;5.47;1.83;;;;;;;;;;5135685;28;20201;-46
2022/07/17 01:51:29;;;;;;;4.90;1.40;;;;;;;;;;5136204;28;20217;-45
2022/07/17 01:53:58;;;;;;;4.32;1.60;;;;;;;;;;5135700;28;20213;-46
2022/07/17 01:56:25;;;;;;;5.38;1.90;;;;;;;;;;5135924;28;20209;-46
2022/07/17 01:58:52;;;;;;;7.47;1.70;;;;;;;;;;5136065;28;20231;-46
2022/07/17 02:01:20;;;;;;;7.15;1.88;;;;;;;;;;5135270;28;20208;-47
2022/07/17 02:03:47;;;;;;;4.72;1.75;;;;;;;;;;5135209;28;20201;-45
2022/07/17 02:06:14;;;;;;;6.85;2.20;;;;;;;;;;5135676;28;20232;-45
2022/07/17 02:08:41;;;;;;;3.58;1.50;;;;;;;;;;5135522;28;20630;-48
2022/07/17 02:11:09;;;;;;;6.28;2.15;;;;;;;;;;5135445;28;20201;-45
2022/07/17 02:13:36;;;;;;;6.65;1.92;;;;;;;;;;5135228;28;20197;-49
2022/07/17 02:16:03;;;;;;;2.95;1.73;;;;;;;;;;5135219;28;20626;-46
2022/07/17 02:18:30;;;;;;;10.40;2.25;;;;;;;;;;5135042;28;20228;-46
2022/07/17 02:20:59;;;;;;;6.53;1.98;;;;;;;;;;5135103;28;20713;-46
2022/07/17 02:23:26;;;;;;;3.35;2.00;;;;;;;;;;5135105;28;20235;-46
2022/07/17 02:25:53;;;;;;;2.20;1.75;;;;;;;;;;5135514;28;20278;-46
2022/07/17 02:28:20;;;;;;;3.38;1.83;;;;;;;;;;5135127;28;20212;-47
2022/07/17 02:30:47;;;;;;;9.02;2.25;;;;;;;;;;5135084;28;20232;-46
2022/07/17 02:33:15;;;;;;;7.50;2.55;;;;;;;;;;5135041;28;20193;-45
2022/07/17 02:35:42;;;;;;;5.63;2.20;;;;;;;;;;5135309;28;20232;-47
2022/07/17 02:38:08;;;;;;;7.07;1.80;;;;;;;;;;5136329;27;20219;-46
2022/07/17 02:40:36;;;;;;;6.25;2.20;;;;;;;;;;5139131;27;20197;-52
2022/07/17 02:43:03;;;;;;;6.15;2.08;;;;;;;;;;5139123;27;20206;-49
2022/07/17 02:45:30;;;;;;;6.70;2.35;;;;;;;;;;5138789;27;20240;-48
2022/07/17 02:47:57;;;;;;;6.32;2.15;;;;;;;;;;5138691;27;20622;-48
2022/07/17 02:50:24;;;;;;;8.82;2.10;;;;;;;;;;5138655;27;20566;-46
2022/07/17 02:52:51;;;;;;;11.23;2.50;;;;;;;;;;5103278;27;20627;-49
2022/07/17 02:55:18;;;;;;;5.60;2.30;;;;;;;;;;5138545;27;20201;-47
2022/07/17 02:57:48;;;;;;;6.85;2.65;;;;;;;;;;5138436;27;20574;-46
2022/07/17 03:00:17;;;;;;;9.30;2.53;;;;;;;;;;5138903;27;20269;-49
2022/07/17 03:02:45;;;;;;;3.38;2.10;;;;;;;;;;5138978;27;20213;-46
2022/07/17 03:05:13;;;;;;;6.57;2.05;;;;;;;;;;5138629;27;20634;-48
2022/07/17 03:07:42;;;;;;;8.90;2.50;;;;;;;;;;5138867;27;20261;-47
2022/07/17 03:10:09;;;;;;;4.18;2.20;;;;;;;;;;5138917;27;20266;-47
2022/07/17 03:12:37;;;;;;;2.75;2.00;;;;;;;;;;5138728;27;20201;-47
2022/07/17 03:15:05;;;;;;;7.00;2.10;;;;;;;;;;5139075;27;20201;-47
2022/07/17 03:17:33;;;;;;;2.55;1.80;;;;;;;;;;5138314;27;20201;-48
2022/07/17 03:20:00;;;;;;;3.40;2.08;;;;;;;;;;5138561;27;20198;-47
2022/07/17 03:22:27;;;;;;;3.42;1.98;;;;;;;;;;5138260;27;20229;-45
2022/07/17 03:24:54;;;;;;;9.13;2.30;;;;;;;;;;5138240;27;20220;-46
2022/07/17 03:27:21;;;;;;;10.52;3.55;;;;;;;;;;5138872;27;20201;-48
2022/07/17 03:29:48;;;;;;;4.53;2.00;;;;;;;;;;5138541;27;20664;-46
2022/07/17 03:32:16;;;;;;;4.60;1.75;;;;;;;;;;5138106;27;20201;-47
2022/07/17 03:34:43;;;;;;;8.93;2.17;;;;;;;;;;5138287;27;20683;-46
2022/07/17 03:37:10;;;;;;;4.60;2.10;;;;;;;;;;5138000;27;20197;-47
2022/07/17 03:39:38;;;;;;;6.38;2.08;;;;;;;;;;5137942;27;20233;-46
2022/07/17 03:42:05;;;;;;;2.97;1.55;;;;;;;;;;5138871;27;20201;-47
2022/07/17 03:44:32;;;;;;;7.93;1.80;;;;;;;;;;5138190;27;20229;-46
2022/07/17 03:46:59;;;;;;;4.32;1.70;;;;;;;;;;5137940;27;20209;-46
2022/07/17 03:49:26;;;;;;;5.38;1.65;;;;;;;;;;5137425;27;20261;-46
2022/07/17 03:51:53;;;;;;;4.53;1.65;;;;;;;;;;5137934;27;20193;-46
2022/07/17 03:54:20;;;;;;;3.85;2.10;;;;;;;;;;5137825;27;20197;-45
2022/07/17 03:56:47;;;;;;;4.57;1.90;;;;;;;;;;5137627;27;20201;-48
2022/07/17 03:59:14;;;;;;;4.90;2.00;;;;;;;;;;5137754;27;20288;-46
2022/07/17 04:01:41;;;;;;;6.60;2.28;;;;;;;;;;5137676;27;20194;-47
2022/07/17 04:04:08;;;;;;;7.80;2.00;;;;;;;;;;5137581;27;20638;-46
2022/07/17 04:06:35;;;;;;;4.40;1.75;;;;;;;;;;5137673;27;20197;-47
2022/07/17 04:09:04;;;;;;;3.17;1.67;;;;;;;;;;5137316;27;20652;-48
2022/07/17 04:11:30;;;;;;;3.35;1.77;;;;;;;;;;5138366;27;20197;-46
2022/07/17 04:13:57;;;;;;;3.83;1.58;;;;;;;;;;5137579;27;20209;-46
2022/07/17 04:16:25;;;;;;;3.67;1.45;;;;;;;;;;5137518;27;20209;-46
2022/07/17 04:18:53;;;;;;;4.82;1.40;;;;;;;;;;5137013;27;20246;-47
2022/07/17 04:21:20;;;;;;;2.95;1.50;;;;;;;;;;5137394;27;20319;-46
2022/07/17 04:23:47;;;;;;;5.72;1.80;;;;;;;;;;5138042;27;20233;-46
2022/07/17 04:26:14;;;;;;;2.92;1.55;;;;;;;;;;5137012;27;20201;-46
2022/07/17 04:28:42;;;;;;;5.45;1.60;;;;;;;;;;5137117;27;20254;-47
2022/07/17 04:31:10;;;;;;;3.13;1.83;;;;;;;;;;5137389;27;20209;-47
2022/07/17 04:33:37;;;;;;;1.60;1.30;;;;;;;;;;5137218;27;20208;-45
2022/07/17 04:36:04;;;;;;;2.50;1.30;;;;;;;;;;5123071;27;20206;-46
2022/07/17 04:38:31;;;;;;;5.53;1.67;;;;;;;;;;5116127;28;20222;-49
2022/07/17 04:40:59;;;;;;;7.43;1.60;;;;;;;;;;5117395;27;20198;-51
2022/07/17 04:43:26;;;;;;;1.60;1.50;;;;;;;;;;5135571;27;20202;-51
2022/07/17 04:45:54;;;;;;;4.43;1.52;;;;;;;;;;5135608;27;20194;-47
2022/07/17 04:48:20;;;;;;;2.95;1.60;;;;;;;;;;5117408;27;20640;-49
2022/07/17 04:50:47;;;;;;;9.38;1.42;;;;;;;;;;5135179;27;20196;-52
2022/07/17 04:53:15;;;;;;;2.97;1.40;;;;;;;;;;5135114;27;20594;-47
2022/07/17 04:55:49;;;;;;;4.78;1.80;;;;;;;;;;5135638;27;20606;-46
2022/07/17 04:58:18;;;;;;;2.90;1.48;;;;;;;;;;5135014;27;20664;-47
2022/07/17 05:00:45;;;;;;;3.72;1.40;;;;;;;;;;5133650;27;20276;-49
2022/07/17 05:03:13;;;;;;;5.38;1.35;;;;;;;;;;5131691;27;20213;-48
2022/07/17 05:05:40;;;;;;;3.78;1.52;;;;;;;;;;5132954;27;20227;-46
2022/07/17 05:08:07;;;;;;;2.67;1.30;;;;;;;;;;5135277;27;20200;-47
2022/07/17 05:10:34;;;;;;;2.00;1.30;;;;;;;;;;5134896;27;20197;-53
2022/07/17 05:13:01;;;;;;;2.65;1.20;;;;;;;;;;5134794;27;20193;-49
2022/07/17 05:15:28;;;;;;;2.25;1.23;;;;;;;;;;5134725;27;20276;-49
2022/07/17 05:17:55;;;;;;;3.25;1.50;;;;;;;;;;5134960;27;20200;-52
2022/07/17 05:20:23;;;;;;;6.55;1.40;;;;;;;;;;5134854;27;20189;-49
2022/07/17 05:22:50;;;;;;;1.60;1.20;;;;;;;;;;5134818;27;20328;-47
2022/07/17 05:25:17;;;;;;;2.60;1.30;;;;;;;;;;5134929;27;20498;-50
2022/07/17 05:27:44;;;;;;;2.85;1.30;;;;;;;;;;5134916;27;20614;-51
2022/07/17 05:30:11;;;;;;;2.50;1.13;;;;;;;;;;5130573;27;20515;-48
2022/07/17 05:32:38;;;;;;;2.88;1.10;;;;;;;;;;5127824;27;20219;-49
2022/07/17 05:35:06;;;;;;;2.72;1.17;;;;;;;;;;5133804;27;20543;-50
2022/07/17 05:37:33;;;;;;;4.10;1.60;;;;;;;;;;5133671;27;20205;-49
2022/07/17 05:40:01;;;;;;;2.85;1.00;;;;;;;;;;5133583;27;20697;-53
2022/07/17 05:42:28;;;;;;;6.53;1.40;;;;;;;;;;5134012;27;20236;-48
2022/07/17 05:45:01;;;;;;;2.45;1.67;;;;;;;;;;5131470;28;20229;-51
2022/07/17 05:47:29;;;;;;;2.83;1.40;;;;;;;;;;5133627;28;20221;-47
2022/07/17 05:49:56;;;;;;;6.20;1.30;;;;;;;;;;5133432;28;20246;-52
2022/07/17 05:52:23;;;;;;;1.95;1.13;;;;;;;;;;5132644;28;20213;-48
2022/07/17 05:54:50;;;;;;;4.10;1.00;;;;;;;;;;5129867;28;20218;-47
2022/07/17 05:57:17;;;;;;;2.85;1.20;;;;;;;;;;5124541;28;20253;-47
2022/07/17 05:59:44;;;;;;;4.03;1.20;;;;;;;;;;5114322;28;20556;-47
2022/07/17 06:02:11;;;;;;;1.30;1.20;;;;;;;;;;5114492;28;20230;-47
2022/07/17 06:04:38;;;;;;;2.08;1.00;;;;;;;;;;5114064;28;20291;-50
2022/07/17 06:07:06;;;;;;;2.67;1.27;;;;;;;;;;5114408;28;20225;-48
2022/07/17 06:09:33;;;;;;;5.00;0.85;;;;;;;;;;5123628;28;20229;-48
2022/07/17 06:12:00;;;;;;;6.93;0.90;;;;;;;;;;5135075;28;20221;-49
2022/07/17 06:14:27;;;;;;;1.23;0.80;;;;;;;;;;5137790;27;20222;-47
2022/07/17 06:16:54;;;;;;;1.00;0.77;;;;;;;;;;5138820;27;20221;-48
2022/07/17 06:19:21;;;;;;;1.33;0.80;;;;;;;;;;5138555;27;20692;-49
2022/07/17 06:21:48;;;;;;;2.95;1.00;;;;;;;;;;5136804;27;20224;-47
2022/07/17 06:24:15;;;;;;;5.38;1.00;;;;;;;;;;5138639;27;20233;-50
2022/07/17 06:26:42;;;;;;;5.97;0.80;;;;;;;;;;5138895;27;20217;-51
2022/07/17 06:29:09;;;;;;;4.13;1.20;;;;;;;;;;5138471;27;20236;-50
2022/07/17 06:31:36;;;;;;;1.30;0.68;;;;;;;;;;5138431;27;20232;-47
2022/07/17 06:34:04;;;;;;;2.42;0.70;;;;;;;;;;5138255;27;20718;-49
2022/07/17 06:36:31;;;;;;;6.05;0.77;;;;;;;;;;5138492;27;20221;-52
2022/07/17 06:38:58;;;;;;;3.17;0.80;;;;;;;;;;5138509;27;20241;-51
2022/07/17 06:41:25;;;;;;;1.98;0.90;;;;;;;;;;5138703;27;20569;-48
2022/07/17 06:43:52;;;;;;;1.15;0.60;;;;;;;;;;5138402;27;20244;-48
2022/07/17 06:46:19;;;;;;;2.95;1.00;;;;;;;;;;5138483;27;20520;-47
2022/07/17 06:48:46;;;;;;;0.93;0.70;;;;;;;;;;5137808;27;20217;-50
2022/07/17 06:51:13;;;;;;;0.70;0.70;;;;;;;;;;5139341;27;20231;-49
2022/07/17 06:53:40;;;;;;;1.83;0.95;;;;;;;;;;5137345;27;20245;-55
2022/07/17 06:56:07;;;;;;;1.90;0.90;;;;;;;;;;5135415;27;20228;-55
2022/07/17 06:58:35;;;;;;;1.45;0.70;;;;;;;;;;5138193;27;20221;-55
2022/07/17 07:01:02;;;;;;;3.05;0.95;;;;;;;;;;5138419;27;20228;-52
2022/07/17 07:03:29;;;;;;;2.42;0.80;;;;;;;;;;5137655;27;20317;-51
2022/07/17 07:05:57;;;;;;;1.27;0.60;;;;;;;;;;5137727;27;20225;-56
2022/07/17 07:08:24;;;;;;;1.98;0.80;;;;;;;;;;5138563;27;20225;-52
2022/07/17 07:10:51;;;;;;;1.30;0.77;;;;;;;;;;5137673;27;20235;-49
2022/07/17 07:13:18;;;;;;;9.60;0.80;;;;;;;;;;5138178;27;20217;-55
2022/07/17 07:15:45;;;;;;;5.35;0.50;;;;;;;;;;5119931;27;20228;-54
2022/07/17 07:18:12;;;;;;;4.00;0.57;;;;;;;;;;5137428;27;20221;-55
2022/07/17 07:20:39;;;;;;;5.53;0.50;;;;;;;;;;5137676;27;20241;-55
2022/07/17 07:23:07;;;;;;;4.32;0.50;;;;;;;;;;5137745;27;20518;-53
2022/07/17 07:25:34;;;;;;;2.08;0.77;;;;;;;;;;5136214;27;20662;-53
2022/07/17 07:28:03;;;;;;;4.55;0.60;;;;;;;;;;5137555;27;20278;-51
2022/07/17 07:30:30;;;;;;;0.95;0.40;;;;;;;;;;5137309;27;20252;-52
2022/07/17 07:32:57;;;;;;;6.63;0.60;;;;;;;;;;5137211;27;20217;-53
2022/07/17 07:35:24;;;;;;;6.28;0.70;;;;;;;;;;5137080;27;20661;-52
2022/07/17 07:37:52;;;;;;;12.63;0.65;;;;;;;;;;5137718;27;20221;-54
2022/07/17 07:40:19;;;;;;;10.70;0.90;;;;;;;;;;5137322;27;20236;-53
2022/07/17 07:42:46;;;;;;;0.95;0.70;;;;;;;;;;5137056;27;20225;-54
2022/07/17 07:45:13;;;;;;;4.03;0.57;;;;;;;;;;5137304;27;20227;-52
2022/07/17 07:47:46;;;;;;;1.77;0.82;;;;;;;;;;5136827;27;20289;-52
2022/07/17 07:50:13;;;;;;;3.97;0.60;;;;;;;;;;5137283;27;20224;-54
2022/07/17 07:52:41;;;;;;;2.47;0.57;;;;;;;;;;5137046;27;20224;-53
2022/07/17 07:55:09;;;;;;;3.08;0.70;;;;;;;;;;5137435;27;20321;-50
2022/07/17 07:57:45;;;;;;;8.77;0.50;;;;;;;;;;5137479;27;20217;-52
2022/07/17 08:00:13;;;;;;;2.28;0.50;;;;;;;;;;5136931;27;20221;-54
2022/07/17 08:02:41;;;;;;;1.13;0.63;;;;;;;;;;5136239;27;20225;-51
2022/07/17 08:05:09;;;;;;;4.38;0.60;;;;;;;;;;5136955;27;20224;-53
2022/07/17 08:07:36;;;;;;;2.17;0.45;;;;;;;;;;5136704;27;20719;-53
2022/07/17 08:10:04;;;;;;;1.38;0.70;;;;;;;;;;5137029;27;20288;-53
2022/07/17 08:12:31;;;;;;;9.45;0.60;;;;;;;;;;5136821;27;20234;-55
2022/07/17 08:15:15;;;;;;;0.50;0.50;;;;;;;;;;5136334;27;20294;-54
2022/07/17 08:17:43;;;;;;;3.42;0.50;;;;;;;;;;5135394;27;20518;-54
2022/07/17 08:20:11;;;;;;;2.40;0.68;;;;;;;;;;5136119;27;20239;-56
2022/07/17 08:22:42;;;;;;;3.50;0.60;;;;;;;;;;5135514;27;20237;-52
2022/07/17 08:25:30;;;;;;;0.88;0.50;;;;;;;;;;5135673;27;20241;-52
2022/07/17 08:27:57;;;;;;;0.60;0.45;;;;;;;;;;5118891;27;20244;-56
2022/07/17 08:30:24;;;;;;;0.88;0.47;;;;;;;;;;5136317;27;20232;-53
2022/07/17 08:32:51;;;;;;;1.30;0.50;;;;;;;;;;5136008;27;20221;-54
2022/07/17 08:35:19;;;;;;;3.20;0.95;;;;;;;;;;5136654;27;20221;-47
2022/07/17 08:37:51;;;;;;;2.00;0.70;;;;;;;;;;5136067;27;20221;-45
2022/07/17 08:40:20;;;;;;;3.88;0.50;;;;;;;;;;5136594;27;20553;-46
2022/07/17 08:42:48;;;;;;;3.35;0.60;;;;;;;;;;5135435;27;20217;-46
2022/07/17 08:45:16;;;;;;;4.32;0.40;;;;;;;;;;5135953;27;20229;-45
2022/07/17 08:47:43;;;;;;;0.73;0.45;;;;;;;;;;5134445;27;20225;-55
2022/07/17 08:50:12;;;;;;;2.13;0.52;;;;;;;;;;5135705;27;20225;-55
2022/07/17 08:52:41;;;;;;;5.28;0.55;;;;;;;;;;5135619;27;20291;-53
2022/07/17 08:55:10;;;;;;;1.70;0.60;;;;;;;;;;5135861;27;20236;-54
2022/07/17 08:57:39;;;;;;;13.52;1.08;;;;;;;;;;5135509;27;20598;-54
2022/07/17 09:00:18;;;;;;;8.00;0.73;;;;;;;;;;5135344;27;20229;-53
2022/07/17 09:03:04;;;;;;;1.02;0.50;;;;;;;;;;5135281;27;20322;-55
2022/07/17 09:05:34;;;;;;;1.92;0.70;;;;;;;;;;5117763;27;20232;-47
2022/07/17 09:08:02;;;;;;;5.85;0.52;;;;;;;;;;5135712;27;20229;-47
2022/07/17 09:10:36;;;;;;;0.90;0.50;;;;;;;;;;5130975;27;20213;-47
2022/07/17 09:13:25;;;;;;;2.88;0.50;;;;;;;;;;5124548;27;20225;-49
2022/07/17 09:15:57;;;;;;;3.38;0.80;;;;;;;;;;5118926;27;20286;-48
2022/07/17 09:18:25;;;;;;;0.63;0.50;;;;;;;;;;5125543;27;20669;-47
2022/07/17 09:20:54;;;;;;;2.92;0.50;;;;;;;;;;5135321;27;20233;-47
2022/07/17 09:23:24;;;;;;;1.50;0.77;;;;;;;;;;5135125;27;20618;-45
2022/07/17 09:25:55;;;;;;;2.75;0.50;;;;;;;;;;5129749;27;20263;-46
2022/07/17 09:28:23;;;;;;;2.35;0.70;;;;;;;;;;5135681;27;20301;-48
2022/07/17 09:30:53;;;;;;;2.42;0.55;;;;;;;;;;5135215;27;20677;-46
2022/07/17 09:33:23;;;;;;;3.00;0.60;;;;;;;;;;5135434;27;20229;-46
2022/07/17 09:35:55;;;;;;;2.63;0.60;;;;;;;;;;5133905;27;20219;-46
2022/07/17 09:38:29;;;;;;;3.70;0.50;;;;;;;;;;5133561;27;20602;-47
2022/07/17 09:41:17;;;;;;;3.70;0.57;;;;;;;;;;5131398;27;20213;-46
2022/07/17 09:43:52;;;;;;;1.52;0.52;;;;;;;;;;5134947;27;20216;-53
2022/07/17 09:46:20;;;;;;;1.23;0.50;;;;;;;;;;5130733;27;20308;-52
2022/07/17 09:48:53;;;;;;;1.00;0.50;;;;;;;;;;5131064;27;20213;-47
2022/07/17 09:51:29;;;;;;;2.40;0.45;;;;;;;;;;5134354;28;20300;-47
2022/07/17 09:54:01;;;;;;;2.58;0.70;;;;;;;;;;5132964;28;20216;-52
2022/07/17 09:56:30;;;;;;;1.42;0.43;;;;;;;;;;5131961;28;20217;-53
2022/07/17 09:59:04;;;;;;;7.60;0.50;;;;;;;;;;5134431;28;20233;-52
2022/07/17 10:01:32;;;;;;;0.85;0.30;;;;;;;;;;5131585;28;20221;-49
2022/07/17 10:04:01;;;;;;;5.03;0.70;;;;;;;;;;5134317;28;20217;-48
2022/07/17 10:06:29;;;;;;;1.25;0.50;;;;;;;;;;5134177;28;20205;-51
2022/07/17 10:08:56;;;;;;;4.75;0.80;;;;;;;;;;5133951;28;20232;-54
2022/07/17 10:11:27;;;;;;;1.80;0.73;;;;;;;;;;5134745;28;20227;-48
2022/07/17 10:13:57;;;;;;;6.38;0.82;;;;;;;;;;5117491;28;20221;-46
2022/07/17 10:16:26;;;;;;;1.05;0.50;;;;;;;;;;5116815;28;20297;-47
2022/07/17 10:18:57;;;;;;;0.85;0.50;;;;;;;;;;5135062;28;20217;-52
2022/07/17 10:21:26;;;;;;;2.75;0.60;;;;;;;;;;5134447;28;20278;-53
2022/07/17 10:23:53;;;;;;;2.55;0.50;;;;;;;;;;5134530;28;20229;-48
2022/07/17 10:26:40;;;;;;;8.13;0.77;;;;;;;;;;5134538;28;20225;-50
2022/07/17 10:29:38;;;;;;;3.58;0.60;;;;;;;;;;5134567;28;20225;-48
2022/07/17 10:32:18;;;;;;;5.05;0.73;;;;;;;;;;5132180;28;20232;-50
2022/07/17 10:34:46;;;;;;;0.80;0.52;;;;;;;;;;5126705;27;20221;-48
2022/07/17 10:37:24;;;;;;;1.70;0.80;;;;;;;;;;5134662;27;20229;-51
2022/07/17 10:39:57;;;;;;;5.07;0.80;;;;;;;;;;5134634;28;20304;-49
2022/07/17 10:42:37;;;;;;;2.15;0.70;;;;;;;;;;5115823;28;20274;-54
2022/07/17 10:45:15;;;;;;;2.45;0.57;;;;;;;;;;5133519;28;20221;-47
2022/07/17 10:47:43;;;;;;;3.22;0.60;;;;;;;;;;5134692;27;20292;-53
2022/07/17 10:50:11;;;;;;;3.50;0.80;;;;;;;;;;5134698;28;20254;-46
2022/07/17 10:52:39;;;;;;;0.70;0.50;;;;;;;;;;5150751;27;20228;-46
2022/07/17 10:55:18;;;;;;;2.20;0.60;;;;;;;;;;5133842;28;20225;-55
2022/07/17 10:57:47;;;;;;;1.58;0.75;;;;;;;;;;5134020;28;20225;-54
2022/07/17 11:00:15;;;;;;;2.03;0.80;;;;;;;;;;5132922;27;20658;-54
2022/07/17 11:02:43;;;;;;;1.13;0.63;;;;;;;;;;5137025;27;20217;-53
2022/07/17 11:05:12;;;;;;;2.50;0.68;;;;;;;;;;5137874;27;20209;-54
2022/07/17 11:07:52;;;;;;;1.60;0.63;;;;;;;;;;5134822;27;20224;-55
2022/07/17 11:10:21;;;;;;;1.27;0.60;;;;;;;;;;5132296;27;20201;-53
2022/07/17 11:12:49;;;;;;;1.98;0.60;;;;;;;;;;5137335;27;20231;-53
2022/07/17 11:15:16;;;;;;;2.00;0.82;;;;;;;;;;5136642;27;20225;-55
2022/07/17 11:17:46;;;;;;;3.40;0.60;;;;;;;;;;5117278;28;20701;-52
2022/07/17 11:20:15;;;;;;;2.88;0.70;;;;;;;;;;5117099;28;20218;-53
2022/07/17 11:22:42;;;;;;;4.75;0.88;;;;;;;;;;5116917;28;20717;-55
2022/07/17 11:25:11;;;;;;;3.50;0.68;;;;;;;;;;5117157;28;20226;-54
2022/07/17 11:27:38;;;;;;;3.78;0.55;;;;;;;;;;5116366;28;20221;-53
2022/07/17 11:30:13;;;;;;;1.33;0.80;;;;;;;;;;5116787;28;20249;-53
2022/07/17 11:32:42;;;;;;;0.68;0.50;;;;;;;;;;5116749;28;20240;-55
2022/07/17 11:35:20;;;;;;;1.95;0.60;;;;;;;;;;5116709;28;20222;-53
2022/07/17 11:38:08;;;;;;;0.60;0.60;;;;;;;;;;5116618;28;20233;-52
2022/07/17 11:40:45;;;;;;;3.25;0.80;;;;;;;;;;5117025;28;20328;-50
2022/07/17 11:43:12;;;;;;;6.40;0.90;;;;;;;;;;5116694;28;20218;-54
2022/07/17 11:45:39;;;;;;;0.70;0.50;;;;;;;;;;5116244;28;20339;-54
2022/07/17 11:48:07;;;;;;;2.95;1.00;;;;;;;;;;5116843;28;20214;-54
2022/07/17 11:50:34;;;;;;;2.85;0.70;;;;;;;;;;5099036;28;20527;-52
2022/07/17 11:53:03;;;;;;;2.88;0.82;;;;;;;;;;5098501;28;20237;-54
2022/07/17 11:55:40;;;;;;;4.38;0.80;;;;;;;;;;5116938;28;20253;-55
2022/07/17 11:58:07;;;;;;;6.32;0.90;;;;;;;;;;5116294;28;20719;-57
2022/07/17 12:00:35;;;;;;;1.95;0.90;;;;;;;;;;5121337;27;20232;-56
2022/07/17 12:03:06;;;;;;;7.65;1.17;;;;;;;;;;5118824;27;20669;-54
2022/07/17 12:05:35;;;;;;;3.38;1.00;;;;;;;;;;5137370;27;20287;-55
2022/07/17 12:08:02;;;;;;;6.05;1.10;;;;;;;;;;5118688;27;20225;-55
2022/07/17 12:10:32;;;;;;;1.80;1.10;;;;;;;;;;5136773;27;20228;-56
2022/07/17 12:13:05;;;;;;;2.45;1.25;;;;;;;;;;5136168;27;20229;-47
2022/07/17 12:15:41;;;;;;;3.55;1.10;;;;;;;;;;5136697;27;20266;-46
2022/07/17 12:18:23;;;;;;;5.57;1.23;;;;;;;;;;5136456;27;20233;-46
2022/07/17 12:20:54;;;;;;;5.00;1.23;;;;;;;;;;5136705;27;20241;-47
2022/07/17 12:23:38;;;;;;;3.17;1.40;;;;;;;;;;5114772;28;20534;-46
2022/07/17 12:26:15;;;;;;;4.05;1.20;;;;;;;;;;5115882;28;20552;-47
2022/07/17 12:28:45;;;;;;;13.18;1.20;;;;;;;;;;5115713;28;20230;-48
2022/07/17 12:31:13;;;;;;;6.95;1.25;;;;;;;;;;5115963;28;20246;-46
2022/07/17 12:33:41;;;;;;;6.38;1.23;;;;;;;;;;5116019;27;20228;-47
2022/07/17 12:36:08;;;;;;;13.38;1.50;;;;;;;;;;5115772;28;20226;-46
2022/07/17 12:38:35;;;;;;;7.65;1.27;;;;;;;;;;5115779;28;20275;-45
2022/07/17 12:41:02;;;;;;;11.50;1.20;;;;;;;;;;5116180;28;20244;-45
2022/07/17 12:55:58;;;;;;;3.05;0.95;;;;;;;;;;5111149;27;21062;-52
2022/07/17 12:58:25;;;;;;;3.08;0.98;;;;;;;;;;5100686;28;20219;-46
2022/07/17 13:00:52;;;;;;;1.98;0.90;;;;;;;;;;5100834;28;20214;-51
2022/07/17 13:03:20;;;;;;;2.83;1.02;;;;;;;;;;5101802;28;20548;-48
2022/07/17 13:05:47;;;;;;;4.28;1.10;;;;;;;;;;5070917;28;20215;-45
2022/07/17 13:08:14;;;;;;;1.85;1.10;;;;;;;;;;5071252;28;20319;-46
2022/07/17 13:10:41;;;;;;;1.65;1.10;;;;;;;;;;5070655;28;20237;-45
2022/07/17 13:13:08;;;;;;;2.75;1.73;;;;;;;;;;5071254;28;20241;-48
2022/07/17 13:15:36;;;;;;;2.35;1.40;;;;;;;;;;5070355;28;20288;-46
2022/07/17 13:18:03;;;;;;;3.20;1.15;;;;;;;;;;5070832;28;20744;-45
2022/07/17 13:20:30;;;;;;;1.00;0.90;;;;;;;;;;5070639;28;20234;-45
2022/07/17 13:22:57;;;;;;;1.17;0.77;;;;;;;;;;5070747;28;20609;-48
2022/07/17 13:25:24;;;;;;;1.55;1.17;;;;;;;;;;5070398;28;20240;-47
2022/07/17 13:27:52;;;;;;;5.07;1.10;;;;;;;;;;5071251;28;20243;-47
2022/07/17 13:30:19;;;;;;;2.08;0.93;;;;;;;;;;5081053;27;20235;-48
2022/07/17 13:32:46;;;;;;;3.03;1.20;;;;;;;;;;5090864;28;20234;-46
2022/07/17 13:35:14;;;;;;;2.13;1.10;;;;;;;;;;5090909;27;20250;-47
2022/07/17 13:37:41;;;;;;;2.30;1.10;;;;;;;;;;5090642;28;20219;-46
2022/07/17 13:40:08;;;;;;;4.38;0.77;;;;;;;;;;5090325;27;20326;-49
2022/07/17 13:42:35;;;;;;;6.88;1.23;;;;;;;;;;5090699;28;20219;-48
2022/07/17 13:45:03;;;;;;;2.97;1.10;;;;;;;;;;5090437;27;20235;-51
2022/07/17 13:47:30;;;;;;;1.55;0.90;;;;;;;;;;5090483;28;20238;-48
2022/07/17 13:49:57;;;;;;;1.50;1.00;;;;;;;;;;5090615;27;20227;-47
2022/07/17 13:52:24;;;;;;;3.50;1.10;;;;;;;;;;5090253;28;20227;-47
2022/07/17 13:54:51;;;;;;;1.35;1.10;;;;;;;;;;5086569;28;20547;-55
2022/07/17 13:57:18;;;;;;;5.20;1.40;;;;;;;;;;5076395;28;20215;-54
2022/07/17 13:59:46;;;;;;;2.92;1.38;;;;;;;;;;5075545;28;20227;-55
2022/07/17 14:02:13;;;;;;;1.60;1.20;;;;;;;;;;5076662;28;20591;-57
2022/07/17 14:04:41;;;;;;;2.80;1.15;;;;;;;;;;5076139;28;20600;-54
2022/07/17 14:07:08;;;;;;;1.42;1.02;;;;;;;;;;5076662;28;20239;-57
2022/07/17 14:09:35;;;;;;;2.88;1.15;;;;;;;;;;5076543;28;20238;-55
2022/07/17 14:12:02;;;;;;;3.50;1.00;;;;;;;;;;5074091;28;20288;-56
2022/07/17 14:14:29;;;;;;;1.80;1.10;;;;;;;;;;5075790;28;20618;-54
2022/07/17 14:16:56;;;;;;;5.18;1.30;;;;;;;;;;5076453;28;20219;-46
2022/07/17 14:19:25;;;;;;;2.13;0.95;;;;;;;;;;5076656;28;20235;-48
2022/07/17 14:21:52;;;;;;;1.50;0.88;;;;;;;;;;5076572;28;20230;-47
2022/07/17 14:24:20;;;;;;;5.10;1.10;;;;;;;;;;5076412;28;20245;-49
2022/07/17 14:26:48;;;;;;;3.75;1.00;;;;;;;;;;5076271;28;20226;-48
2022/07/17 14:29:15;;;;;;;1.10;0.90;;;;;;;;;;5075797;28;20239;-47
2022/07/17 14:31:41;;;;;;;1.80;0.88;;;;;;;;;;5076026;28;20255;-48
2022/07/17 14:34:12;;;;;;;1.15;0.68;;;;;;;;;;5076133;28;20719;-47
2022/07/17 14:36:40;;;;;;;1.90;0.75;;;;;;;;;;5076054;28;20227;-47
2022/07/17 14:39:07;;;;;;;1.15;0.77;;;;;;;;;;5076468;28;20223;-47
2022/07/17 14:41:34;;;;;;;1.48;0.68;;;;;;;;;;5075992;28;20219;-46
2022/07/17 14:44:01;;;;;;;1.98;0.80;;;;;;;;;;5074778;28;20230;-46
2022/07/17 14:46:28;;;;;;;3.55;0.90;;;;;;;;;;5075873;28;20665;-46
2022/07/17 14:48:56;;;;;;;3.80;0.63;;;;;;;;;;5075855;28;20223;-47
2022/07/17 14:51:23;;;;;;;1.33;0.70;;;;;;;;;;5075699;28;20237;-46
2022/07/17 14:53:50;;;;;;;1.45;0.60;;;;;;;;;;5075573;28;20587;-50
2022/07/17 14:56:18;;;;;;;2.30;0.60;;;;;;;;;;5075782;28;20237;-45
2022/07/17 14:58:44;;;;;;;1.75;0.60;;;;;;;;;;5075226;28;20216;-47
2022/07/17 15:01:11;;;;;;;2.88;0.95;;;;;;;;;;5075244;28;20673;-46
2022/07/17 15:03:39;;;;;;;1.33;0.60;;;;;;;;;;5075403;28;20219;-46